Nearby METAR Reports

 

KTOP - Billard Municipal Airport, Topeka, Kansas, USA
Updated: Fri, 20-Oct-2017 12:53am CDT
Clear
Clear
 Wind from S
Wind: S 8 mph , 13 km/h
Temperature: 63°F , 17°C
Dew Point: 54°F , 12°C
Humidity: 73%
Barometer: 30.06 inHg , 1017.9 hPa
Clouds: Clear
Visibility: 10 miles , 16 km
2017/10/20 05:53 KTOP 200553Z AUTO 19007KT 10SM CLR 17/12 A3006 RMK AO2 SLP174 T01670122 10211 20156 402780083 51006
KFOE - Forbes Field Airport, Topeka, Kansas, USA
Updated: Fri, 20-Oct-2017 12:53am CDT
Clear
Clear
 Wind from S
Wind: S 13 mph , 20 km/h
Temperature: 63°F , 17°C
Dew Point: 54°F , 12°C
Humidity: 73%
Barometer: 30.07 inHg , 1018.3 hPa
Clouds: Clear
Visibility: 10 miles , 16 km
2017/10/20 05:53 KFOE 200553Z AUTO 19011KT 10SM CLR 17/12 A3007 RMK AO2 SLP173 T01720122 10217 20150 402780094 51003